createdAt,value
2022-08-07T00:04:11.106Z,101477.70000000001
2022-08-07T00:09:16.957Z,101479.14
2022-08-07T00:14:09.234Z,101485.27
2022-08-07T00:19:09.200Z,101487.8
2022-08-07T00:24:10.636Z,101489.54
2022-08-07T00:29:09.149Z,101488.67
2022-08-07T00:34:09.741Z,101491.47
2022-08-07T00:39:16.627Z,101494.74
2022-08-07T00:44:09.107Z,101496.39
2022-08-07T00:49:09.582Z,101501.15
2022-08-07T00:54:10.017Z,101494.83
2022-08-07T00:59:09.487Z,101500.41
2022-08-07T01:04:09.108Z,101497.15
2022-08-07T01:09:10.331Z,101498.92
2022-08-07T01:14:09.587Z,101501.14
2022-08-07T01:19:18.188Z,101499.78
2022-08-07T01:24:10.459Z,101495.86
2022-08-07T01:29:10.409Z,101500.48000000001
2022-08-07T01:33:56.355Z,101498.99
2022-08-07T01:34:10.632Z,101498.99
2022-08-07T01:39:10.637Z,101499.49
2022-08-07T01:44:10.834Z,101500.03
2022-08-07T01:49:10.665Z,101497.77
2022-08-07T01:54:33.299Z,101501.76
2022-08-07T01:59:16.628Z,101496.73
2022-08-07T02:04:12.895Z,101495.73000000001
2022-08-07T02:09:33.443Z,101491.44
2022-08-07T02:14:10.805Z,101488.67
2022-08-07T02:20:06.771Z,101490.42
2022-08-07T02:24:12.277Z,101487.65
2022-08-07T02:29:13.777Z,101489.29000000001
2022-08-07T02:34:01.427Z,101485.83
2022-08-07T02:34:11.223Z,101485.83
2022-08-07T02:39:17.293Z,101489.71
2022-08-07T02:44:10.828Z,101494.55
2022-08-07T02:49:09.379Z,101492.04999999999
2022-08-07T02:54:11.040Z,101494.53
2022-08-07T02:59:14.099Z,101493.08
2022-08-07T03:04:15.036Z,101496.84
2022-08-07T03:09:11.396Z,101496.01
2022-08-07T03:14:09.834Z,101502.57
2022-08-07T03:19:09.929Z,101506.15000000001
2022-08-07T03:24:17.865Z,101508.06
2022-08-07T03:29:14.753Z,101506.97
2022-08-07T03:34:10.897Z,101502.26
2022-08-07T03:39:15.270Z,101510.38
2022-08-07T03:44:09.602Z,101508.2
2022-08-07T03:49:09.159Z,101512.31
2022-08-07T03:54:36.279Z,101516.36
2022-08-07T03:59:13.127Z,101517.88
2022-08-07T04:04:10.002Z,101516.2
2022-08-07T04:09:15.144Z,101524.34
2022-08-07T04:14:37.333Z,101519.06
2022-08-07T04:19:12.718Z,101519.2
2022-08-07T04:24:11.961Z,101525.99
2022-08-07T04:29:10.928Z,101528.74
2022-08-07T04:34:16.462Z,101534.0
2022-08-07T04:39:10.508Z,101535.65999999999
2022-08-07T04:44:12.364Z,101531.5
2022-08-07T04:49:24.263Z,101536.04000000001
2022-08-07T04:51:43.744Z,101546.84
2022-08-07T04:54:19.126Z,101546.84
2022-08-07T05:00:09.889Z,101548.51999999999
2022-08-07T05:04:17.259Z,101558.43
2022-08-07T05:09:15.758Z,101564.14
2022-08-07T05:14:52.970Z,101562.86
2022-08-07T05:19:12.344Z,101573.14
2022-08-07T05:24:10.900Z,101576.76
2022-08-07T05:29:10.777Z,101583.53
2022-08-07T05:34:12.119Z,101579.6
2022-08-07T05:40:13.675Z,101576.23
2022-08-07T05:44:12.875Z,101581.8
2022-08-07T05:49:12.453Z,101577.44
2022-08-07T05:54:29.916Z,101574.18000000001
2022-08-07T05:59:15.081Z,101584.24
2022-08-07T06:04:12.927Z,101576.87
2022-08-07T06:09:09.790Z,101577.58
2022-08-07T06:14:12.957Z,101574.98000000001
2022-08-07T06:19:17.859Z,101578.36
2022-08-07T06:24:52.187Z,101579.11
2022-08-07T06:29:09.244Z,101577.94
2022-08-07T06:34:10.263Z,101581.37000000001
2022-08-07T06:40:16.463Z,101580.42
2022-08-07T06:44:11.144Z,101581.44
2022-08-07T06:49:09.262Z,101581.81
2022-08-07T06:55:28.311Z,101583.12
2022-08-07T07:00:15.035Z,101583.25
2022-08-07T07:04:28.366Z,101589.9
2022-08-07T07:09:20.761Z,101589.61
2022-08-07T07:14:09.907Z,101588.92
2022-08-07T07:19:55.087Z,101584.48
2022-08-07T07:24:12.698Z,101580.55
2022-08-07T07:29:38.609Z,101579.53
2022-08-07T07:34:16.422Z,101576.56
2022-08-07T07:39:10.801Z,101570.79
2022-08-07T07:44:17.143Z,101562.39
2022-08-07T07:50:29.642Z,101563.59
2022-08-07T07:54:11.530Z,101562.65
2022-08-07T07:59:11.457Z,101560.99
2022-08-07T08:04:12.199Z,101557.29
2022-08-07T08:09:11.179Z,101552.5
2022-08-07T08:14:09.329Z,101553.09
2022-08-07T08:19:17.756Z,101555.45
2022-08-07T08:24:36.599Z,101550.33
2022-08-07T08:29:11.620Z,101545.81
2022-08-07T08:34:12.547Z,101547.34
2022-08-07T08:39:10.004Z,101549.5
2022-08-07T08:44:16.833Z,101551.70000000001
2022-08-07T08:49:33.244Z,101546.69
2022-08-07T08:54:14.860Z,101555.93000000001
2022-08-07T08:59:16.917Z,101557.42
2022-08-07T09:04:15.382Z,101557.09000000001
2022-08-07T09:09:23.596Z,101555.15000000001
2022-08-07T09:14:14.225Z,101547.33
2022-08-07T09:19:50.785Z,101545.76
2022-08-07T09:24:31.770Z,101537.05
2022-08-07T09:30:04.534Z,101531.8
2022-08-07T09:34:15.963Z,101531.41
2022-08-07T09:39:55.207Z,101532.86
2022-08-07T09:44:33.068Z,101530.92
2022-08-07T09:50:02.768Z,101522.94
2022-08-07T09:54:16.345Z,101515.11
2022-08-07T09:59:24.874Z,101511.11
2022-08-07T10:04:28.303Z,101504.58
2022-08-07T10:09:34.266Z,101506.38
2022-08-07T10:14:31.176Z,101502.15
2022-08-07T10:18:01.349Z,101497.17000000001
2022-08-07T10:19:25.801Z,101497.17000000001
2022-08-07T10:19:42.101Z,101497.17000000001
2022-08-07T10:19:54.132Z,101493.52
2022-08-07T10:24:28.587Z,101493.52
2022-08-07T10:29:30.490Z,101497.09
2022-08-07T10:34:27.225Z,101499.75
2022-08-07T10:39:25.534Z,101495.9
2022-08-07T10:44:19.455Z,101493.84999999999
2022-08-07T10:49:14.878Z,101489.81
2022-08-07T10:54:15.619Z,101494.11
2022-08-07T10:59:21.320Z,101491.36
2022-08-07T11:04:31.405Z,101484.52
2022-08-07T11:10:07.058Z,101486.72
2022-08-07T11:14:44.577Z,101478.52
2022-08-07T11:19:21.547Z,101470.22
2022-08-07T11:24:15.311Z,101469.16
2022-08-07T11:29:42.043Z,101468.66
2022-08-07T11:32:40.590Z,101468.62999999999
2022-08-07T11:34:16.867Z,101468.62999999999
2022-08-07T11:39:23.401Z,101463.67
2022-08-07T11:40:24.901Z,101461.68000000001
2022-08-07T11:44:31.251Z,101461.68000000001
2022-08-07T11:48:13.809Z,101461.83
2022-08-07T11:49:28.720Z,101461.83
2022-08-07T11:52:37.936Z,101453.2
2022-08-07T11:54:22.182Z,101453.2
2022-08-07T12:00:11.411Z,101446.34999999999
2022-08-07T12:04:26.101Z,101443.17
2022-08-07T12:09:16.646Z,101442.48999999999
2022-08-07T12:14:15.287Z,101438.86
2022-08-07T12:19:21.455Z,101429.26999999999
2022-08-07T12:24:38.451Z,101425.97
2022-08-07T12:29:15.178Z,101428.25
2022-08-07T12:34:11.571Z,101426.23
2022-08-07T12:38:09.294Z,101419.24
2022-08-07T12:39:43.724Z,101419.24
2022-08-07T12:44:17.121Z,101416.38
2022-08-07T12:49:25.689Z,101416.22
2022-08-07T12:54:37.045Z,101417.55
2022-08-07T12:57:39.187Z,101414.43000000001
2022-08-07T12:59:20.641Z,101414.43000000001
2022-08-07T13:04:34.588Z,101412.67
2022-08-07T13:10:19.879Z,101403.99
2022-08-07T13:14:18.445Z,101395.15
2022-08-07T13:19:34.894Z,101394.69
2022-08-07T13:24:19.392Z,101398.67
2022-08-07T13:29:14.352Z,101391.24
2022-08-07T13:34:34.615Z,101396.31000000001
2022-08-07T13:39:49.466Z,101391.2
2022-08-07T13:44:12.908Z,101391.90999999999
2022-08-07T13:50:33.065Z,101379.54999999999
2022-08-07T13:51:01.214Z,101371.69
2022-08-07T13:54:16.492Z,101371.69
2022-08-07T13:59:14.620Z,101367.64
2022-08-07T14:04:12.273Z,101359.19
2022-08-07T14:10:16.447Z,101357.65
2022-08-07T14:14:13.233Z,101353.39
2022-08-07T14:19:17.755Z,101343.24
2022-08-07T14:24:15.224Z,101343.72
2022-08-07T14:30:05.700Z,101336.89
2022-08-07T14:34:11.800Z,101335.77
2022-08-07T14:39:12.582Z,101325.01999999999
2022-08-07T14:44:11.746Z,101320.51
2022-08-07T14:49:55.725Z,101315.77
2022-08-07T14:54:33.047Z,101314.42
2022-08-07T14:59:13.913Z,101309.19
2022-08-07T15:04:12.043Z,101308.17
2022-08-07T15:14:21.043Z,101305.95
2022-08-07T15:19:14.159Z,101305.11
2022-08-07T15:25:13.347Z,101301.39
2022-08-07T15:25:14.890Z,101301.39
2022-08-07T15:30:08.800Z,101295.37
2022-08-07T15:39:11.477Z,101286.39
2022-08-07T15:44:14.024Z,101286.14
2022-08-07T15:54:11.958Z,101281.05
2022-08-07T15:59:16.434Z,101278.28
2022-08-07T16:04:15.314Z,101276.98000000001
2022-08-07T16:09:22.870Z,101276.75
2022-08-07T16:14:17.078Z,101279.64
2022-08-07T16:19:42.552Z,101276.12000000001
2022-08-07T16:24:34.286Z,101270.61
2022-08-07T16:30:11.848Z,101269.6
2022-08-07T16:34:23.785Z,101275.05
2022-08-07T16:39:33.792Z,101274.01999999999
2022-08-07T16:44:46.210Z,101270.9
2022-08-07T16:50:26.873Z,101273.32
2022-08-07T16:54:33.061Z,101270.81
2022-08-07T16:59:21.959Z,101275.12000000001
2022-08-07T17:04:12.535Z,101270.73000000001
2022-08-07T17:10:07.226Z,101273.29999999999
2022-08-07T17:14:18.959Z,101278.36
2022-08-07T17:16:03.141Z,101281.48
2022-08-07T17:20:00.690Z,101281.48
2022-08-07T17:24:28.566Z,101288.75
2022-08-07T17:29:04.483Z,101289.31
2022-08-07T17:29:18.372Z,101289.31
2022-08-07T17:34:32.998Z,101293.75
2022-08-07T17:39:16.622Z,101297.24
2022-08-07T17:44:33.214Z,101298.38
2022-08-07T17:49:14.808Z,101301.9
2022-08-07T17:54:14.913Z,101304.3
2022-08-07T17:59:17.145Z,101306.91
2022-08-07T18:04:20.722Z,101311.83
2022-08-07T18:06:39.233Z,101319.17
2022-08-07T18:09:17.118Z,101319.17
2022-08-07T18:14:16.565Z,101320.72
2022-08-07T18:21:11.870Z,101317.74
2022-08-07T18:24:33.909Z,101324.45
2022-08-07T18:30:05.840Z,101322.29999999999
2022-08-07T18:34:40.925Z,101327.01
2022-08-07T18:40:06.631Z,101324.7
2022-08-07T18:44:21.796Z,101327.22
2022-08-07T18:50:31.640Z,101334.78
2022-08-07T18:54:27.574Z,101338.65
2022-08-07T18:59:47.431Z,101347.77
2022-08-07T19:04:17.642Z,101347.61
2022-08-07T19:09:56.259Z,101348.67
2022-08-07T19:14:16.916Z,101353.63
2022-08-07T19:19:18.750Z,101357.53
2022-08-07T19:22:03.980Z,101355.05
2022-08-07T19:24:31.054Z,101355.05
2022-08-07T19:31:04.231Z,101351.9
2022-08-07T19:34:13.719Z,101356.97
2022-08-07T19:39:11.024Z,101356.19
2022-08-07T19:44:21.666Z,101350.40000000001
2022-08-07T19:49:14.362Z,101358.29
2022-08-07T19:54:35.607Z,101359.86
2022-08-07T19:59:16.437Z,101362.03
2022-08-07T20:04:09.412Z,101362.48000000001
2022-08-07T20:10:33.445Z,101364.38
2022-08-07T20:14:23.146Z,101362.08
2022-08-07T20:19:11.988Z,101364.85
2022-08-07T20:24:22.064Z,101364.06
2022-08-07T20:29:17.009Z,101366.3
2022-08-07T20:34:10.685Z,101366.2
2022-08-07T20:39:30.690Z,101364.58
2022-08-07T20:44:12.348Z,101370.96
2022-08-07T20:49:58.159Z,101368.20999999999
2022-08-07T20:54:12.152Z,101370.0
2022-08-07T21:00:05.642Z,101370.42
2022-08-07T21:04:22.437Z,101363.2
2022-08-07T21:09:14.993Z,101368.32
2022-08-07T21:14:32.003Z,101366.76
2022-08-07T21:14:32.576Z,101366.76
2022-08-07T21:14:37.770Z,101366.76
2022-08-07T21:19:10.456Z,101359.5
2022-08-07T21:24:12.938Z,101365.42
2022-08-07T21:29:17.276Z,101364.69
2022-08-07T21:34:19.614Z,101366.8
2022-08-07T21:39:47.202Z,101368.31
2022-08-07T21:44:28.579Z,101370.56
2022-08-07T21:54:18.714Z,101370.76
2022-08-07T21:59:20.526Z,101373.44
2022-08-07T22:04:14.322Z,101371.84
2022-08-07T22:09:11.259Z,101373.6
2022-08-07T22:09:24.190Z,101373.6
2022-08-07T22:14:15.379Z,101375.75
2022-08-07T22:16:55.405Z,101378.72
2022-08-07T22:19:17.169Z,101378.72
2022-08-07T22:24:15.126Z,101372.05
2022-08-07T22:29:18.886Z,101372.69
2022-08-07T22:34:13.050Z,101378.73
2022-08-07T22:39:23.434Z,101378.83
2022-08-07T22:44:13.770Z,101376.81
2022-08-07T22:49:22.407Z,101370.97
2022-08-07T22:54:26.638Z,101376.31999999999
2022-08-07T22:59:28.421Z,101379.90999999999
2022-08-07T23:04:29.894Z,101385.58
2022-08-07T23:10:04.786Z,101388.39
2022-08-07T23:14:22.807Z,101393.97
2022-08-07T23:19:47.839Z,101397.74
2022-08-07T23:24:21.155Z,101405.74
2022-08-07T23:29:43.609Z,101402.78
2022-08-07T23:34:37.842Z,101406.48
2022-08-07T23:39:16.919Z,101405.66
2022-08-07T23:44:24.761Z,101411.51999999999
2022-08-07T23:49:42.312Z,101413.47
2022-08-07T23:54:36.118Z,101413.76000000001
